Time,TemperatureF,DewpointF,PressureIn,WindDirection,WindDirectionDegrees,WindSpeedMPH,WindSpeedGustMPH,Humidity,HourlyPrecipIn,Conditions,Clouds,dailyrainin,SoftwareType,DateUTC
2013-04-09 00:00:00,48.8,38.0,30.03,East,79,5.4,7.7,66,0.00,n/a,n/a,-99.99,Henriksen +1-Wire,2013-04-09 04:00:00,
2013-04-09 00:02:00,48.8,38.1,30.03,East,89,5.5,7.7,66,0.00,n/a,n/a,-99.99,Henriksen +1-Wire,2013-04-09 04:02:00,
2013-04-09 00:06:00,48.8,38.1,30.03,East,83,4.8,7.5,66,0.00,n/a,n/a,-99.99,Henriksen +1-Wire,2013-04-09 04:06:00,
2013-04-09 00:08:00,48.8,38.1,30.03,East,82,5.3,7.5,66,0.00,n/a,n/a,-99.99,Henriksen +1-Wire,2013-04-09 04:08:00,
2013-04-09 00:14:00,48.8,38.1,30.03,East,93,4.1,7.7,66,0.00,n/a,n/a,-99.99,Henriksen +1-Wire,2013-04-09 04:14:00,
2013-04-09 00:20:00,48.7,38.0,30.03,East,91,5.0,8.0,66,0.00,n/a,n/a,-99.99,Henriksen +1-Wire,2013-04-09 04:20:00,
2013-04-09 00:26:00,48.7,38.1,30.03,East,98,3.3,8.0,66,0.00,n/a,n/a,-99.99,Henriksen +1-Wire,2013-04-09 04:26:00,
2013-04-09 00:32:00,48.8,38.1,30.03,East,94,3.8,6.1,66,0.00,n/a,n/a,-99.99,Henriksen +1-Wire,2013-04-09 04:32:00,
2013-04-09 00:38:00,48.8,38.1,30.02,East,85,6.1,8.9,66,0.00,n/a,n/a,-99.99,Henriksen +1-Wire,2013-04-09 04:38:00,
2013-04-09 00:44:00,48.8,38.1,30.02,East,98,4.5,8.9,66,0.00,n/a,n/a,-99.99,Henriksen +1-Wire,2013-04-09 04:44:00,
2013-04-09 00:50:00,48.8,38.1,30.03,East,96,4.3,8.0,66,0.00,n/a,n/a,-99.99,Henriksen +1-Wire,2013-04-09 04:50:00,
2013-04-09 00:56:00,48.8,38.0,30.02,East,86,5.6,8.3,66,0.00,n/a,n/a,-99.99,Henriksen +1-Wire,2013-04-09 04:56:00,
2013-04-09 01:02:00,48.8,38.1,30.02,East,81,5.2,8.3,66,0.00,n/a,n/a,-99.99,Henriksen +1-Wire,2013-04-09 05:02:00,
2013-04-09 01:08:00,48.7,38.1,30.01,East,89,3.9,7.7,66,0.00,n/a,n/a,-99.99,Henriksen +1-Wire,2013-04-09 05:08:00,
2013-04-09 01:14:00,48.7,38.1,30.01,East,79,4.0,7.7,66,0.00,n/a,n/a,-99.99,Henriksen +1-Wire,2013-04-09 05:14:00,
2013-04-09 01:20:00,48.7,38.1,30.01,East,80,4.3,8.0,66,0.00,n/a,n/a,-99.99,Henriksen +1-Wire,2013-04-09 05:20:00,
2013-04-09 01:26:00,48.8,38.0,30.01,East,88,5.1,8.3,66,0.00,n/a,n/a,-99.99,Henriksen +1-Wire,2013-04-09 05:26:00,
2013-04-09 01:32:00,48.8,38.1,30.00,East,80,4.8,8.3,66,0.00,n/a,n/a,-99.99,Henriksen +1-Wire,2013-04-09 05:32:00,
2013-04-09 01:38:00,48.8,38.0,30.00,East,82,4.7,7.4,66,0.00,n/a,n/a,-99.99,Henriksen +1-Wire,2013-04-09 05:38:00,
2013-04-09 01:44:00,48.8,38.0,30.00,East,85,3.9,7.8,66,0.00,n/a,n/a,-99.99,Henriksen +1-Wire,2013-04-09 05:44:00,
2013-04-09 01:49:00,48.7,37.9,29.99,East,84,4.2,7.8,65,0.00,n/a,n/a,-99.99,Henriksen +1-Wire,2013-04-09 05:49:00,
2013-04-09 01:56:00,48.6,37.9,29.98,East,90,5.0,7.0,66,0.00,n/a,n/a,-99.99,Henriksen +1-Wire,2013-04-09 05:56:00,
2013-04-09 02:01:00,48.6,37.8,29.98,East,91,3.5,7.0,65,0.00,n/a,n/a,-99.99,Henriksen +1-Wire,2013-04-09 06:01:00,
2013-04-09 02:08:00,48.5,37.8,29.97,East,82,5.6,8.3,66,0.00,n/a,n/a,-99.99,Henriksen +1-Wire,2013-04-09 06:08:00,
2013-04-09 02:14:00,48.4,37.7,29.97,East,85,3.6,8.1,66,0.00,n/a,n/a,-99.99,Henriksen +1-Wire,2013-04-09 06:14:00,
2013-04-09 02:20:00,48.3,37.6,29.97,East,92,1.9,8.1,66,0.00,n/a,n/a,-99.99,Henriksen +1-Wire,2013-04-09 06:20:00,
2013-04-09 02:26:00,48.2,37.6,29.97,East,83,3.5,5.8,66,0.00,n/a,n/a,-99.99,Henriksen +1-Wire,2013-04-09 06:26:00,
2013-04-09 02:31:00,48.3,37.7,29.96,East,80,3.9,7.4,66,0.00,n/a,n/a,-99.99,Henriksen +1-Wire,2013-04-09 06:31:00,
2013-04-09 02:38:00,48.2,37.6,29.96,East,87,4.5,7.0,66,0.00,n/a,n/a,-99.99,Henriksen +1-Wire,2013-04-09 06:38:00,
2013-04-09 02:44:00,48.2,37.6,29.96,ESE,102,4.2,6.9,66,0.00,n/a,n/a,-99.99,Henriksen +1-Wire,2013-04-09 06:44:00,
2013-04-09 02:50:00,48.2,37.6,29.95,East,97,3.0,7.7,66,0.00,n/a,n/a,-99.99,Henriksen +1-Wire,2013-04-09 06:50:00,
2013-04-09 02:56:00,48.1,37.6,29.95,East,98,2.7,6.5,66,0.00,n/a,n/a,-99.99,Henriksen +1-Wire,2013-04-09 06:56:00,
2013-04-09 03:02:00,48.2,37.6,29.95,East,95,3.7,6.5,66,0.00,n/a,n/a,-99.99,Henriksen +1-Wire,2013-04-09 07:02:00,
2013-04-09 03:10:00,48.2,37.5,29.95,East,99,3.4,5.7,66,0.00,n/a,n/a,-99.99,Henriksen +1-Wire,2013-04-09 07:10:00,
2013-04-09 03:16:00,48.2,37.5,29.96,East,101,2.6,5.2,66,0.00,n/a,n/a,-99.99,Henriksen +1-Wire,2013-04-09 07:16:00,
2013-04-09 03:22:00,48.2,37.5,29.95,East,81,3.0,5.0,66,0.00,n/a,n/a,-99.99,Henriksen +1-Wire,2013-04-09 07:22:00,
2013-04-09 03:28:00,48.1,37.5,29.95,East,94,3.6,5.5,66,0.00,n/a,n/a,-99.99,Henriksen +1-Wire,2013-04-09 07:28:00,
2013-04-09 03:34:00,48.1,37.6,29.94,ESE,105,2.4,5.5,66,0.00,n/a,n/a,-99.99,Henriksen +1-Wire,2013-04-09 07:34:00,
2013-04-09 03:40:00,48.2,37.6,29.93,East,96,3.2,6.5,66,0.00,n/a,n/a,-99.99,Henriksen +1-Wire,2013-04-09 07:40:00,
2013-04-09 03:46:00,48.2,37.7,29.93,East,92,2.3,6.5,66,0.00,n/a,n/a,-99.99,Henriksen +1-Wire,2013-04-09 07:46:00,
2013-04-09 03:52:00,48.1,37.7,29.93,East,91,2.1,5.0,66,0.00,n/a,n/a,-99.99,Henriksen +1-Wire,2013-04-09 07:52:00,
2013-04-09 03:58:00,48.0,37.9,29.93,East,80,2.4,4.2,67,0.00,n/a,n/a,-99.99,Henriksen +1-Wire,2013-04-09 07:58:00,
2013-04-09 04:04:00,48.0,37.9,29.93,East,100,1.9,4.2,67,0.00,n/a,n/a,-99.99,Henriksen +1-Wire,2013-04-09 08:04:00,
2013-04-09 04:10:00,48.0,37.8,29.92,East,92,2.6,3.8,67,0.00,n/a,n/a,-99.99,Henriksen +1-Wire,2013-04-09 08:10:00,
2013-04-09 04:16:00,47.9,37.9,29.92,ENE,72,2.9,4.0,68,0.00,n/a,n/a,-99.99,Henriksen +1-Wire,2013-04-09 08:16:00,
2013-04-09 04:22:00,47.7,37.9,29.91,NE,34,0.7,4.0,68,0.00,n/a,n/a,-99.99,Henriksen +1-Wire,2013-04-09 08:22:00,
2013-04-09 04:28:00,47.4,37.8,29.90,NE,38,2.5,5.5,68,0.00,n/a,n/a,-99.99,Henriksen +1-Wire,2013-04-09 08:28:00,
2013-04-09 04:34:00,46.9,37.7,29.89,ENE,67,1.9,5.5,70,0.00,n/a,n/a,-99.99,Henriksen +1-Wire,2013-04-09 08:34:00,
2013-04-09 04:40:00,46.8,37.9,29.89,ENE,69,2.5,5.9,70,0.00,n/a,n/a,-99.99,Henriksen +1-Wire,2013-04-09 08:40:00,
2013-04-09 04:46:00,46.9,38.1,29.88,East,90,2.7,5.9,71,0.00,n/a,n/a,-99.99,Henriksen +1-Wire,2013-04-09 08:46:00,
2013-04-09 04:52:00,47.1,38.2,29.90,SSE,159,2.2,6.0,70,0.00,n/a,n/a,-99.99,Henriksen +1-Wire,2013-04-09 08:52:00,
2013-04-09 04:58:00,47.1,38.2,29.89,NNE,27,2.3,5.8,71,0.00,n/a,n/a,-99.99,Henriksen +1-Wire,2013-04-09 08:58:00,
2013-04-09 05:04:00,47.1,38.2,29.90,ENE,63,0.0,4.2,71,0.00,n/a,n/a,-99.99,Henriksen +1-Wire,2013-04-09 09:04:00,
2013-04-09 05:10:00,47.0,38.3,29.91,West,274,0.0,0.9,71,0.00,n/a,n/a,-99.99,Henriksen +1-Wire,2013-04-09 09:10:00,
2013-04-09 05:16:00,46.8,38.9,29.95,West,280,4.0,8.3,73,0.01,n/a,n/a,-99.99,Henriksen +1-Wire,2013-04-09 09:16:00,
2013-04-09 05:22:00,46.2,39.7,29.94,NW,309,1.8,8.3,78,0.01,n/a,n/a,-99.99,Henriksen +1-Wire,2013-04-09 09:22:00,
2013-04-09 05:28:00,45.9,39.9,29.93,NW,315,1.5,5.8,79,0.01,n/a,n/a,-99.99,Henriksen +1-Wire,2013-04-09 09:28:00,
2013-04-09 05:34:00,45.6,40.2,29.93,NNW,329,1.8,4.2,81,0.02,n/a,n/a,-99.99,Henriksen +1-Wire,2013-04-09 09:34:00,
2013-04-09 05:40:00,45.5,40.2,29.93,NNW,327,0.7,3.5,81,0.02,n/a,n/a,-99.99,Henriksen +1-Wire,2013-04-09 09:40:00,
2013-04-09 05:46:00,45.0,40.4,29.90,WNW,285,1.2,2.5,83,0.03,n/a,n/a,-99.99,Henriksen +1-Wire,2013-04-09 09:46:00,
2013-04-09 05:52:00,44.7,40.8,29.89,WSW,253,1.2,4.1,86,0.04,n/a,n/a,-99.99,Henriksen +1-Wire,2013-04-09 09:52:00,
2013-04-09 05:58:00,44.6,41.0,29.88,NNE,18,1.0,4.1,87,0.04,n/a,n/a,-99.99,Henriksen +1-Wire,2013-04-09 09:58:00,
2013-04-09 06:04:00,44.6,41.2,29.89,NNE,14,0.6,2.9,87,0.04,n/a,n/a,-99.99,Henriksen +1-Wire,2013-04-09 10:04:00,
2013-04-09 06:10:00,44.5,41.2,29.88,NNE,15,1.1,2.2,87,0.04,n/a,n/a,-99.99,Henriksen +1-Wire,2013-04-09 10:10:00,
2013-04-09 06:16:00,44.5,41.4,29.88,ENE,72,1.2,4.2,88,0.03,n/a,n/a,-99.99,Henriksen +1-Wire,2013-04-09 10:16:00,
2013-04-09 06:22:00,44.5,41.5,29.88,ENE,61,2.6,5.0,88,0.03,n/a,n/a,-99.99,Henriksen +1-Wire,2013-04-09 10:22:00,
2013-04-09 06:28:00,44.6,41.6,29.88,ENE,71,1.8,3.5,89,0.03,n/a,n/a,-99.99,Henriksen +1-Wire,2013-04-09 10:28:00,
2013-04-09 06:36:00,44.7,41.8,29.88,East,95,1.4,3.2,89,0.02,n/a,n/a,-99.99,Henriksen +1-Wire,2013-04-09 10:36:00,
2013-04-09 06:42:00,44.7,41.8,29.88,NNW,335,0.3,2.2,89,0.01,n/a,n/a,-99.99,Henriksen +1-Wire,2013-04-09 10:42:00,
2013-04-09 06:48:00,44.9,42.0,29.88,ESE,113,0.0,1.9,89,0.00,n/a,n/a,-99.99,Henriksen +1-Wire,2013-04-09 10:48:00,
2013-04-09 06:54:00,45.0,42.0,29.88,East,98,1.4,2.2,89,0.00,n/a,n/a,-99.99,Henriksen +1-Wire,2013-04-09 10:54:00,
2013-04-09 07:00:00,45.1,42.0,29.87,East,91,1.6,2.6,89,0.00,n/a,n/a,-99.99,Henriksen +1-Wire,2013-04-09 11:00:00,
2013-04-09 07:06:00,45.2,42.2,29.87,ENE,71,0.0,2.6,89,0.00,n/a,n/a,-99.99,Henriksen +1-Wire,2013-04-09 11:06:00,
2013-04-09 07:12:00,45.4,42.4,29.87,South,176,0.0,0.0,89,0.00,n/a,n/a,-99.99,Henriksen +1-Wire,2013-04-09 11:12:00,
2013-04-09 07:18:00,45.5,42.4,29.87,East,86,1.5,2.3,88,0.00,n/a,n/a,-99.99,Henriksen +1-Wire,2013-04-09 11:18:00,
2013-04-09 07:24:00,45.6,42.4,29.87,ESE,104,0.0,2.3,88,0.00,n/a,n/a,-99.99,Henriksen +1-Wire,2013-04-09 11:24:00,
2013-04-09 07:30:00,45.7,42.5,29.87,East,96,0.0,0.3,88,0.00,n/a,n/a,-99.99,Henriksen +1-Wire,2013-04-09 11:30:00,
2013-04-09 07:36:00,45.8,42.7,29.87,ESE,105,0.0,0.0,88,0.00,n/a,n/a,-99.99,Henriksen +1-Wire,2013-04-09 11:36:00,
2013-04-09 07:42:00,46.1,42.9,29.87,NNW,347,0.0,0.0,88,0.00,n/a,n/a,-99.99,Henriksen +1-Wire,2013-04-09 11:42:00,
2013-04-09 07:48:00,45.9,42.8,29.87,NNW,327,0.0,0.0,88,0.00,n/a,n/a,-99.99,Henriksen +1-Wire,2013-04-09 11:48:00,
2013-04-09 07:54:00,45.9,42.8,29.86,NNE,26,0.0,0.0,89,0.00,n/a,n/a,-99.99,Henriksen +1-Wire,2013-04-09 11:54:00,
2013-04-09 08:00:00,45.9,42.8,29.86,NNE,33,0.0,0.0,89,0.00,n/a,n/a,-99.99,Henriksen +1-Wire,2013-04-09 12:00:00,
2013-04-09 08:06:00,46.1,43.1,29.86,NNE,31,0.0,0.0,89,0.00,n/a,n/a,-99.99,Henriksen +1-Wire,2013-04-09 12:06:00,
2013-04-09 08:12:00,46.3,43.3,29.86,NW,305,0.4,1.0,89,0.00,n/a,n/a,-99.99,Henriksen +1-Wire,2013-04-09 12:12:00,
2013-04-09 08:18:00,46.3,43.3,29.86,NW,314,0.0,1.0,89,0.00,n/a,n/a,-99.99,Henriksen +1-Wire,2013-04-09 12:18:00,
2013-04-09 08:24:00,46.4,43.5,29.85,WNW,301,0.0,0.0,89,0.00,n/a,n/a,-99.99,Henriksen +1-Wire,2013-04-09 12:24:00,
2013-04-09 08:30:00,46.7,43.7,29.85,NW,321,0.0,0.0,89,0.00,n/a,n/a,-99.99,Henriksen +1-Wire,2013-04-09 12:30:00,
2013-04-09 08:36:00,46.9,43.8,29.85,WNW,286,0.0,0.0,89,0.00,n/a,n/a,-99.99,Henriksen +1-Wire,2013-04-09 12:36:00,
2013-04-09 08:42:00,47.1,43.7,29.85,SW,236,1.3,3.2,87,0.00,n/a,n/a,-99.99,Henriksen +1-Wire,2013-04-09 12:42:00,
2013-04-09 08:48:00,47.3,43.9,29.84,SSW,199,0.4,3.2,87,0.00,n/a,n/a,-99.99,Henriksen +1-Wire,2013-04-09 12:48:00,
2013-04-09 08:54:00,47.4,44.0,29.84,SSW,192,0.0,3.2,87,0.00,n/a,n/a,-99.99,Henriksen +1-Wire,2013-04-09 12:54:00,
2013-04-09 09:00:00,47.4,44.1,29.84,SSW,197,0.0,0.0,88,0.00,n/a,n/a,-99.99,Henriksen +1-Wire,2013-04-09 13:00:00,
2013-04-09 09:06:00,47.6,44.5,29.84,SSE,150,0.0,0.0,88,0.00,n/a,n/a,-99.99,Henriksen +1-Wire,2013-04-09 13:06:00,
2013-04-09 09:12:00,47.6,44.5,29.84,SSE,163,0.0,0.0,89,0.00,n/a,n/a,-99.99,Henriksen +1-Wire,2013-04-09 13:12:00,
2013-04-09 09:18:00,47.7,44.7,29.84,South,185,0.6,2.5,89,0.00,n/a,n/a,-99.99,Henriksen +1-Wire,2013-04-09 13:18:00,
2013-04-09 09:24:00,47.8,44.9,29.83,South,173,0.0,2.5,89,0.00,n/a,n/a,-99.99,Henriksen +1-Wire,2013-04-09 13:24:00,
2013-04-09 09:30:00,48.1,45.2,29.82,SSE,158,0.8,2.5,89,0.00,n/a,n/a,-99.99,Henriksen +1-Wire,2013-04-09 13:30:00,
2013-04-09 09:36:00,48.3,45.3,29.83,ESE,107,0.7,3.5,89,0.00,n/a,n/a,-99.99,Henriksen +1-Wire,2013-04-09 13:36:00,
2013-04-09 09:42:00,48.5,45.5,29.83,ESE,114,1.9,3.5,89,0.00,n/a,n/a,-99.99,Henriksen +1-Wire,2013-04-09 13:42:00,
2013-04-09 09:48:00,48.7,45.6,29.83,SSW,192,1.5,3.5,88,0.00,n/a,n/a,-99.99,Henriksen +1-Wire,2013-04-09 13:48:00,
2013-04-09 09:54:00,49.2,46.1,29.83,SSW,197,3.1,7.6,88,0.00,n/a,n/a,-99.99,Henriksen +1-Wire,2013-04-09 13:54:00,
2013-04-09 10:00:00,49.6,46.1,29.83,SSW,205,2.3,7.6,87,0.00,n/a,n/a,-99.99,Henriksen +1-Wire,2013-04-09 14:00:00,
2013-04-09 10:06:00,49.9,46.4,29.83,WSW,250,3.2,5.9,87,0.00,n/a,n/a,-99.99,Henriksen +1-Wire,2013-04-09 14:06:00,
2013-04-09 10:12:00,50.3,46.6,29.84,WSW,252,3.1,8.8,87,0.00,n/a,n/a,-99.99,Henriksen +1-Wire,2013-04-09 14:12:00,
2013-04-09 10:18:00,50.8,47.0,29.83,WSW,247,4.8,8.8,86,0.00,n/a,n/a,-99.99,Henriksen +1-Wire,2013-04-09 14:18:00,
2013-04-09 10:24:00,51.1,46.9,29.84,WSW,243,2.4,7.7,85,0.00,n/a,n/a,-99.99,Henriksen +1-Wire,2013-04-09 14:24:00,
2013-04-09 10:30:00,51.4,47.0,29.84,WSW,240,3.5,8.3,84,0.00,n/a,n/a,-99.99,Henriksen +1-Wire,2013-04-09 14:30:00,
2013-04-09 10:36:00,51.8,47.0,29.84,SSW,208,3.5,7.4,83,0.00,n/a,n/a,-99.99,Henriksen +1-Wire,2013-04-09 14:36:00,
2013-04-09 10:42:00,52.1,46.9,29.84,WNW,292,3.1,8.1,82,0.00,n/a,n/a,-99.99,Henriksen +1-Wire,2013-04-09 14:42:00,
2013-04-09 10:48:00,52.4,46.8,29.84,WNW,294,3.3,8.9,81,0.00,n/a,n/a,-99.99,Henriksen +1-Wire,2013-04-09 14:48:00,
2013-04-09 10:54:00,53.4,50.4,29.84,SW,231,4.5,8.9,89,0.00,n/a,n/a,-99.99,Henriksen +1-Wire,2013-04-09 14:54:00,
2013-04-09 11:00:00,54.5,40.6,29.83,WSW,241,3.2,10.5,59,0.00,n/a,n/a,-99.99,Henriksen +1-Wire,2013-04-09 15:00:00,
2013-04-09 11:06:00,55.1,46.6,29.83,WSW,252,3.6,9.1,72,0.00,n/a,n/a,-99.99,Henriksen +1-Wire,2013-04-09 15:06:00,
2013-04-09 11:12:00,56.1,48.4,29.83,SSW,203,2.4,7.1,75,0.00,n/a,n/a,-99.99,Henriksen +1-Wire,2013-04-09 15:12:00,
2013-04-09 11:18:00,57.2,48.7,29.83,WSW,240,2.7,8.7,73,0.00,n/a,n/a,-99.99,Henriksen +1-Wire,2013-04-09 15:18:00,
2013-04-09 11:24:00,57.7,48.4,29.83,WNW,287,3.1,9.0,70,0.00,n/a,n/a,-99.99,Henriksen +1-Wire,2013-04-09 15:24:00,
2013-04-09 11:30:00,58.2,48.1,29.83,WNW,290,2.6,7.7,68,0.00,n/a,n/a,-99.99,Henriksen +1-Wire,2013-04-09 15:30:00,
2013-04-09 11:36:00,58.5,48.0,29.83,WNW,293,3.6,8.7,67,0.00,n/a,n/a,-99.99,Henriksen +1-Wire,2013-04-09 15:36:00,
2013-04-09 11:54:00,57.7,44.3,29.82,WSW,247,3.8,8.0,60,0.00,n/a,n/a,-99.99,Henriksen +1-Wire,2013-04-09 15:54:00,
2013-04-09 12:00:00,61.7,55.1,29.82,WSW,247,5.2,12.0,78,0.00,n/a,n/a,-99.99,Henriksen +1-Wire,2013-04-09 16:00:00,
2013-04-09 12:06:00,63.8,50.1,29.82,SSW,195,6.3,10.4,60,0.00,n/a,n/a,-99.99,Henriksen +1-Wire,2013-04-09 16:06:00,
2013-04-09 12:46:00,63.0,44.8,29.81,WSW,252,4.5,5.7,51,0.00,n/a,n/a,-99.99,Henriksen +1-Wire,2013-04-09 16:46:00,
2013-04-09 12:52:00,64.3,46.0,29.81,SSW,203,5.0,10.5,51,0.00,n/a,n/a,-99.99,Henriksen +1-Wire,2013-04-09 16:52:00,
2013-04-09 12:58:00,65.1,46.4,29.81,SW,232,5.9,11.0,50,0.00,n/a,n/a,-99.99,Henriksen +1-Wire,2013-04-09 16:58:00,
2013-04-09 13:04:00,66.3,46.1,29.81,WSW,242,4.8,11.0,47,0.00,n/a,n/a,-99.99,Henriksen +1-Wire,2013-04-09 17:04:00,
2013-04-09 13:10:00,67.2,36.4,29.82,SSW,212,6.1,15.9,31,0.00,n/a,n/a,-99.99,Henriksen +1-Wire,2013-04-09 17:10:00,
2013-04-09 13:16:00,67.3,45.7,29.83,WSW,242,5.8,15.9,45,0.00,n/a,n/a,-99.99,Henriksen +1-Wire,2013-04-09 17:16:00,
2013-04-09 13:22:00,67.1,46.2,29.82,NW,307,6.9,15.2,46,0.00,n/a,n/a,-99.99,Henriksen +1-Wire,2013-04-09 17:22:00,
2013-04-09 13:28:00,66.0,46.0,29.82,WNW,291,5.9,14.3,48,0.00,n/a,n/a,-99.99,Henriksen +1-Wire,2013-04-09 17:28:00,
2013-04-09 13:34:00,66.3,40.9,29.83,WSW,257,5.9,13.5,39,0.00,n/a,n/a,-99.99,Henriksen +1-Wire,2013-04-09 17:34:00,
2013-04-09 13:40:00,66.4,44.6,29.82,WNW,295,4.7,13.6,44,0.00,n/a,n/a,-99.99,Henriksen +1-Wire,2013-04-09 17:40:00,
2013-04-09 13:46:00,67.3,45.7,29.83,WNW,294,5.4,13.6,45,0.00,n/a,n/a,-99.99,Henriksen +1-Wire,2013-04-09 17:46:00,
2013-04-09 13:52:00,67.2,45.5,29.84,SSW,204,4.2,12.3,45,0.00,n/a,n/a,-99.99,Henriksen +1-Wire,2013-04-09 17:52:00,
2013-04-09 13:58:00,67.7,45.2,29.84,SSW,204,5.5,11.5,43,0.00,n/a,n/a,-99.99,Henriksen +1-Wire,2013-04-09 17:58:00,
2013-04-09 16:38:00,66.6,40.0,29.86,WNW,285,5.3,9.9,37,0.00,n/a,n/a,-99.99,Henriksen +1-Wire,2013-04-09 20:38:00,
2013-04-09 16:44:00,67.7,41.4,29.86,SSW,206,6.7,13.9,37,0.00,n/a,n/a,-99.99,Henriksen +1-Wire,2013-04-09 20:44:00,
2013-04-09 16:50:00,68.1,41.1,29.86,WSW,239,3.7,13.9,36,0.00,n/a,n/a,-99.99,Henriksen +1-Wire,2013-04-09 20:50:00,
2013-04-09 16:56:00,67.6,41.1,29.86,WNW,295,4.4,9.5,37,0.00,n/a,n/a,-99.99,Henriksen +1-Wire,2013-04-09 20:56:00,
2013-04-09 17:02:00,67.4,40.5,29.86,WNW,296,4.0,9.5,37,0.00,n/a,n/a,-99.99,Henriksen +1-Wire,2013-04-09 21:02:00,
2013-04-09 17:08:00,67.3,40.4,29.86,WNW,292,3.2,8.7,36,0.00,n/a,n/a,-99.99,Henriksen +1-Wire,2013-04-09 21:08:00,
2013-04-09 17:14:00,67.3,40.1,29.87,West,279,5.2,9.2,36,0.00,n/a,n/a,-99.99,Henriksen +1-Wire,2013-04-09 21:14:00,
2013-04-09 17:20:00,67.1,40.3,29.87,WNW,290,3.7,9.6,37,0.00,n/a,n/a,-99.99,Henriksen +1-Wire,2013-04-09 21:20:00,
2013-04-09 17:26:00,67.0,40.5,29.88,WSW,247,3.3,9.6,37,0.00,n/a,n/a,-99.99,Henriksen +1-Wire,2013-04-09 21:26:00,
2013-04-09 17:32:00,66.8,40.9,29.88,WNW,294,2.4,7.1,38,0.00,n/a,n/a,-99.99,Henriksen +1-Wire,2013-04-09 21:32:00,
2013-04-09 17:38:00,66.3,40.7,29.89,WNW,295,3.5,6.5,38,0.00,n/a,n/a,-99.99,Henriksen +1-Wire,2013-04-09 21:38:00,
2013-04-09 17:44:00,66.3,40.7,29.89,WNW,294,3.5,7.0,38,0.00,n/a,n/a,-99.99,Henriksen +1-Wire,2013-04-09 21:44:00,
2013-04-09 17:50:00,66.0,40.4,29.90,WNW,294,6.4,10.8,38,0.00,n/a,n/a,-99.99,Henriksen +1-Wire,2013-04-09 21:50:00,
2013-04-09 17:56:00,66.0,40.9,29.90,WSW,249,3.8,10.8,39,0.00,n/a,n/a,-99.99,Henriksen +1-Wire,2013-04-09 21:56:00,
2013-04-09 18:02:00,65.9,40.6,29.90,WSW,243,2.7,6.8,39,0.00,n/a,n/a,-99.99,Henriksen +1-Wire,2013-04-09 22:02:00,
2013-04-09 18:08:00,65.5,40.2,29.90,WNW,295,4.0,9.9,39,0.00,n/a,n/a,-99.99,Henriksen +1-Wire,2013-04-09 22:08:00,
2013-04-09 18:14:00,65.1,40.2,29.90,WNW,301,4.6,9.9,39,0.00,n/a,n/a,-99.99,Henriksen +1-Wire,2013-04-09 22:14:00,
2013-04-09 18:20:00,64.9,40.2,29.90,WNW,296,4.2,7.9,40,0.00,n/a,n/a,-99.99,Henriksen +1-Wire,2013-04-09 22:20:00,
2013-04-09 18:26:00,64.6,40.4,29.90,WNW,291,3.5,8.0,40,0.00,n/a,n/a,-99.99,Henriksen +1-Wire,2013-04-09 22:26:00,
2013-04-09 18:32:00,64.5,40.8,29.91,WSW,252,1.9,8.0,41,0.00,n/a,n/a,-99.99,Henriksen +1-Wire,2013-04-09 22:32:00,
2013-04-09 18:38:00,64.3,40.7,29.90,WNW,286,1.3,5.6,41,0.00,n/a,n/a,-99.99,Henriksen +1-Wire,2013-04-09 22:38:00,
2013-04-09 18:44:00,64.2,40.5,29.90,WNW,296,2.1,5.6,41,0.00,n/a,n/a,-99.99,Henriksen +1-Wire,2013-04-09 22:44:00,
2013-04-09 18:50:00,63.7,40.7,29.91,WNW,294,0.9,5.2,42,0.00,n/a,n/a,-99.99,Henriksen +1-Wire,2013-04-09 22:50:00,
2013-04-09 18:56:00,63.4,40.9,29.90,West,273,2.1,5.6,43,0.00,n/a,n/a,-99.99,Henriksen +1-Wire,2013-04-09 22:56:00,
2013-04-09 19:02:00,63.4,40.6,29.90,WSW,248,0.4,5.6,42,0.00,n/a,n/a,-99.99,Henriksen +1-Wire,2013-04-09 23:02:00,
2013-04-09 19:08:00,62.9,41.1,29.90,WSW,238,0.6,1.9,44,0.00,n/a,n/a,-99.99,Henriksen +1-Wire,2013-04-09 23:08:00,
2013-04-09 19:14:00,62.5,41.3,29.90,West,267,0.4,2.9,45,0.00,n/a,n/a,-99.99,Henriksen +1-Wire,2013-04-09 23:14:00,
2013-04-09 19:20:00,61.8,41.0,29.90,WNW,290,1.3,2.9,46,0.00,n/a,n/a,-99.99,Henriksen +1-Wire,2013-04-09 23:20:00,
2013-04-09 19:26:00,61.2,41.2,29.91,WNW,297,0.1,2.6,47,0.00,n/a,n/a,-99.99,Henriksen +1-Wire,2013-04-09 23:26:00,
2013-04-09 19:32:00,60.4,41.3,29.91,NW,308,0.0,1.0,49,0.00,n/a,n/a,-99.99,Henriksen +1-Wire,2013-04-09 23:32:00,
2013-04-09 19:38:00,59.8,41.5,29.91,NW,308,0.0,0.3,50,0.00,n/a,n/a,-99.99,Henriksen +1-Wire,2013-04-09 23:38:00,
2013-04-09 19:44:00,59.5,41.4,29.91,WNW,285,0.0,0.0,50,0.00,n/a,n/a,-99.99,Henriksen +1-Wire,2013-04-09 23:44:00,
2013-04-09 19:50:00,59.2,42.0,29.91,WSW,255,0.0,0.0,52,0.00,n/a,n/a,-99.99,Henriksen +1-Wire,2013-04-09 23:50:00,
2013-04-09 19:56:00,58.5,43.0,29.91,SW,222,0.0,0.0,56,0.00,n/a,n/a,-99.99,Henriksen +1-Wire,2013-04-09 23:56:00,
2013-04-09 20:02:00,58.0,42.3,29.92,SW,218,0.0,0.0,55,0.00,n/a,n/a,-99.99,Henriksen +1-Wire,2013-04-10 00:02:00,
2013-04-09 20:08:00,57.7,42.3,29.92,SW,223,0.0,0.0,55,0.00,n/a,n/a,-99.99,Henriksen +1-Wire,2013-04-10 00:08:00,
2013-04-09 20:14:00,57.2,42.1,29.93,NNE,28,0.2,2.2,56,0.00,n/a,n/a,-99.99,Henriksen +1-Wire,2013-04-10 00:14:00,
2013-04-09 20:20:00,56.2,42.6,29.93,ENE,77,6.4,10.9,60,0.00,n/a,n/a,-99.99,Henriksen +1-Wire,2013-04-10 00:20:00,
2013-04-09 20:26:00,54.2,42.7,29.94,ENE,63,3.8,10.9,64,0.00,n/a,n/a,-99.99,Henriksen +1-Wire,2013-04-10 00:26:00,
2013-04-09 20:32:00,52.7,42.8,29.94,ENE,77,4.9,11.2,68,0.00,n/a,n/a,-99.99,Henriksen +1-Wire,2013-04-10 00:32:00,
2013-04-09 20:38:00,51.9,42.7,29.95,ENE,77,3.3,11.3,70,0.00,n/a,n/a,-99.99,Henriksen +1-Wire,2013-04-10 00:38:00,
2013-04-09 20:44:00,51.4,42.7,29.96,East,100,3.2,8.0,71,0.00,n/a,n/a,-99.99,Henriksen +1-Wire,2013-04-10 00:44:00,
2013-04-09 20:50:00,51.0,42.5,29.97,East,97,2.7,4.5,72,0.00,n/a,n/a,-99.99,Henriksen +1-Wire,2013-04-10 00:50:00,
2013-04-09 20:56:00,50.6,42.4,29.97,ESE,103,3.2,5.8,73,0.00,n/a,n/a,-99.99,Henriksen +1-Wire,2013-04-10 00:56:00,
2013-04-09 21:02:00,50.3,42.3,29.97,ENE,77,3.5,6.3,73,0.00,n/a,n/a,-99.99,Henriksen +1-Wire,2013-04-10 01:02:00,
2013-04-09 21:08:00,50.0,42.3,29.97,East,90,2.5,6.3,74,0.00,n/a,n/a,-99.99,Henriksen +1-Wire,2013-04-10 01:08:00,
2013-04-09 21:14:00,49.7,42.1,29.98,East,93,3.6,5.7,74,0.00,n/a,n/a,-99.99,Henriksen +1-Wire,2013-04-10 01:14:00,
2013-04-09 21:20:00,49.2,42.1,29.98,East,100,2.5,5.7,76,0.00,n/a,n/a,-99.99,Henriksen +1-Wire,2013-04-10 01:20:00,
2013-04-09 21:26:00,48.9,41.9,29.98,ESE,113,2.3,4.8,76,0.00,n/a,n/a,-99.99,Henriksen +1-Wire,2013-04-10 01:26:00,
2013-04-09 21:32:00,48.6,41.8,29.98,ENE,73,2.4,5.9,77,0.00,n/a,n/a,-99.99,Henriksen +1-Wire,2013-04-10 01:32:00,
2013-04-09 21:38:00,48.0,41.4,29.97,NE,46,0.7,5.4,77,0.00,n/a,n/a,-99.99,Henriksen +1-Wire,2013-04-10 01:38:00,
2013-04-09 21:44:00,48.3,41.8,29.98,ESE,110,2.0,3.6,77,0.00,n/a,n/a,-99.99,Henriksen +1-Wire,2013-04-10 01:44:00,
2013-04-09 21:50:00,48.2,41.7,29.97,East,95,2.9,5.1,78,0.00,n/a,n/a,-99.99,Henriksen +1-Wire,2013-04-10 01:50:00,
2013-04-09 21:56:00,48.1,41.8,29.97,ENE,78,1.9,5.0,78,0.00,n/a,n/a,-99.99,Henriksen +1-Wire,2013-04-10 01:56:00,
2013-04-09 22:02:00,48.2,41.8,29.98,ENE,63,1.3,4.3,78,0.00,n/a,n/a,-99.99,Henriksen +1-Wire,2013-04-10 02:02:00,
2013-04-09 22:08:00,47.9,41.7,29.97,ENE,66,2.0,5.4,78,0.00,n/a,n/a,-99.99,Henriksen +1-Wire,2013-04-10 02:08:00,
2013-04-09 22:14:00,48.2,41.7,29.97,East,79,3.7,5.4,78,0.00,n/a,n/a,-99.99,Henriksen +1-Wire,2013-04-10 02:14:00,
2013-04-09 22:20:00,48.1,41.8,29.97,ENE,76,1.8,5.4,78,0.00,n/a,n/a,-99.99,Henriksen +1-Wire,2013-04-10 02:20:00,
2013-04-09 22:26:00,48.1,41.9,29.97,ENE,72,1.9,5.4,78,0.00,n/a,n/a,-99.99,Henriksen +1-Wire,2013-04-10 02:26:00,
2013-04-09 22:32:00,47.9,41.7,29.97,NNW,331,1.0,5.4,78,0.00,n/a,n/a,-99.99,Henriksen +1-Wire,2013-04-10 02:32:00,
2013-04-09 22:38:00,47.8,41.7,29.98,ENE,75,1.8,5.1,79,0.00,n/a,n/a,-99.99,Henriksen +1-Wire,2013-04-10 02:38:00,
2013-04-09 22:44:00,47.8,41.6,29.98,East,82,3.2,4.5,78,0.00,n/a,n/a,-99.99,Henriksen +1-Wire,2013-04-10 02:44:00,
2013-04-09 22:50:00,47.7,41.6,29.99,East,99,1.7,4.5,79,0.00,n/a,n/a,-99.99,Henriksen +1-Wire,2013-04-10 02:50:00,
2013-04-09 22:56:00,47.4,41.6,29.97,ENE,73,2.4,5.6,79,0.00,n/a,n/a,-99.99,Henriksen +1-Wire,2013-04-10 02:56:00,
2013-04-09 23:02:00,47.4,41.6,29.97,East,79,3.2,5.1,80,0.00,n/a,n/a,-99.99,Henriksen +1-Wire,2013-04-10 03:02:00,
2013-04-09 23:08:00,47.3,41.5,29.96,ENE,76,2.7,5.4,80,0.00,n/a,n/a,-99.99,Henriksen +1-Wire,2013-04-10 03:08:00,
2013-04-09 23:14:00,46.9,41.3,29.94,ENE,70,3.7,7.1,80,0.00,n/a,n/a,-99.99,Henriksen +1-Wire,2013-04-10 03:14:00,
2013-04-09 23:20:00,46.9,41.3,29.95,ENE,76,2.5,7.1,80,0.00,n/a,n/a,-99.99,Henriksen +1-Wire,2013-04-10 03:20:00,
2013-04-09 23:26:00,46.9,41.4,29.95,ESE,113,0.7,4.8,81,0.00,n/a,n/a,-99.99,Henriksen +1-Wire,2013-04-10 03:26:00,
2013-04-09 23:32:00,46.6,41.2,29.96,ESE,111,2.4,5.6,81,0.00,n/a,n/a,-99.99,Henriksen +1-Wire,2013-04-10 03:32:00,
2013-04-09 23:38:00,46.5,41.2,29.95,ESE,116,3.7,5.6,81,0.00,n/a,n/a,-99.99,Henriksen +1-Wire,2013-04-10 03:38:00,
2013-04-09 23:44:00,46.4,41.1,29.95,ENE,78,3.7,5.6,81,0.00,n/a,n/a,-99.99,Henriksen +1-Wire,2013-04-10 03:44:00,
2013-04-09 23:50:00,46.4,41.1,29.94,East,79,1.9,5.4,81,0.00,n/a,n/a,-99.99,Henriksen +1-Wire,2013-04-10 03:50:00,
2013-04-09 23:56:00,46.3,41.0,29.93,ENE,72,2.0,6.7,81,0.00,n/a,n/a,-99.99,Henriksen +1-Wire,2013-04-10 03:56:00,